Hadley, Minnesota
Current Conditions -  °F | °C
As of 6:36 PM on Monday 24 Nov 2014 (Local Time) from KDVP Reporting Station
Clear Clear  
Wind Chill:   Ceiling: Unl
Heat Index: 20°   Visibility: 10mi
Dew Point: 15°   Wind: 25mph
Humidity: 81%   Direction: 310°NW
Pressure: 29.86"   Gusts: 35mph
Location:  44.0326°N, 95.9478°W
Report Text: KDVP 250036Z AUTO 31022G30KT 10SM CLR M07/M09 A2986 RMK AO2 T10671095
Loading
Personal Weather Stations






























Interactive Weather Map New forecast layout! Learn more

10-Day Weather Forecast

Advertisements
Track Severe Weather on mobile